createdAt,value
2022-11-24T00:01:19.069Z,-3.33
2022-11-24T00:03:52.486Z,-3.35
2022-11-24T00:06:20.110Z,-3.40
2022-11-24T00:08:47.854Z,-3.44
2022-11-24T00:11:21.026Z,-3.48
2022-11-24T00:13:49.099Z,-3.44
2022-11-24T00:16:24.940Z,-3.42
2022-11-24T00:18:54.570Z,-3.35
2022-11-24T00:21:22.915Z,-3.37
2022-11-24T00:23:51.577Z,-3.48
2022-11-24T00:26:21.729Z,-3.50
2022-11-24T00:28:53.594Z,-3.48
2022-11-24T00:31:24.158Z,-3.40
2022-11-24T00:33:54.679Z,-3.37
2022-11-24T00:36:24.482Z,-3.35
2022-11-24T00:38:56.814Z,-3.36
2022-11-24T00:41:25.877Z,-3.33
2022-11-24T00:43:54.284Z,-3.31
2022-11-24T00:46:23.005Z,-3.35
2022-11-24T00:48:51.315Z,-3.38
2022-11-24T00:51:20.470Z,-3.36
2022-11-24T00:53:48.436Z,-3.32
2022-11-24T00:56:16.110Z,-3.33
2022-11-24T00:58:43.831Z,-3.31
2022-11-24T01:01:16.931Z,-3.27
2022-11-24T01:03:45.309Z,-3.25
2022-11-24T01:06:16.265Z,-3.22
2022-11-24T01:08:44.122Z,-3.24
2022-11-24T01:11:20.700Z,-3.23
2022-11-24T01:13:51.562Z,-3.20
2022-11-24T01:16:26.404Z,-3.17
2022-11-24T01:18:54.867Z,-3.13
2022-11-24T01:21:23.294Z,-3.09
2022-11-24T01:23:51.542Z,-3.08
2022-11-24T01:26:21.612Z,-3.03
2022-11-24T01:28:54.398Z,-2.96
2022-11-24T01:31:22.358Z,-2.91
2022-11-24T01:33:50.112Z,-2.85
2022-11-24T01:36:17.975Z,-2.81
2022-11-24T01:38:45.747Z,-2.78
2022-11-24T01:41:16.853Z,-2.74
2022-11-24T01:43:45.699Z,-2.71
2022-11-24T01:46:20.544Z,-2.68
2022-11-24T01:49:03.996Z,-2.64
2022-11-24T01:51:36.084Z,-2.60
2022-11-24T01:54:11.548Z,-2.60
2022-11-24T01:56:42.391Z,-2.59
2022-11-24T01:59:14.191Z,-2.58
2022-11-24T02:01:42.074Z,-2.56
2022-11-24T02:04:15.037Z,-2.57
2022-11-24T02:06:44.028Z,-2.59
2022-11-24T02:09:25.579Z,-2.51
2022-11-24T02:11:55.305Z,-2.48
2022-11-24T02:14:25.093Z,-2.47
2022-11-24T02:16:53.416Z,-2.45
2022-11-24T02:19:32.772Z,-2.45
2022-11-24T02:22:03.266Z,-2.45
2022-11-24T02:24:41.929Z,-2.38
2022-11-24T02:27:11.447Z,-2.36
2022-11-24T02:29:40.275Z,-2.37
2022-11-24T02:32:10.154Z,-2.35
2022-11-24T02:34:37.858Z,-2.33
2022-11-24T02:37:06.353Z,-2.30
2022-11-24T02:39:34.567Z,-2.29
2022-11-24T02:42:11.611Z,-2.24
2022-11-24T02:44:47.702Z,-2.25
2022-11-24T02:47:15.429Z,-2.28
2022-11-24T02:49:43.167Z,-2.29
2022-11-24T02:52:10.983Z,-2.31
2022-11-24T02:54:38.686Z,-2.35
2022-11-24T02:57:06.378Z,-2.32
2022-11-24T02:59:34.020Z,-2.30
2022-11-24T03:02:01.866Z,-2.32
2022-11-24T03:04:29.645Z,-2.29
2022-11-24T03:06:58.468Z,-2.28
2022-11-24T03:09:26.101Z,-2.28
2022-11-24T03:11:53.761Z,-2.29
2022-11-24T03:14:21.431Z,-2.29
2022-11-24T03:16:49.092Z,-2.35
2022-11-24T03:19:16.787Z,-2.37
2022-11-24T03:21:44.449Z,-2.40
2022-11-24T03:24:12.088Z,-2.40
2022-11-24T03:26:40.006Z,-2.47
2022-11-24T03:29:08.185Z,-2.47
2022-11-24T03:31:35.901Z,-2.48
2022-11-24T03:34:03.576Z,-2.47
2022-11-24T03:36:31.226Z,-2.43
2022-11-24T03:38:58.896Z,-2.40
2022-11-24T03:41:26.844Z,-2.38
2022-11-24T03:43:54.490Z,-2.39
2022-11-24T03:46:22.186Z,-2.43
2022-11-24T03:48:49.868Z,-2.46
2022-11-24T03:51:17.515Z,-2.43
2022-11-24T03:53:45.255Z,-2.40
2022-11-24T03:56:13.439Z,-2.32
2022-11-24T03:58:41.129Z,-2.33
2022-11-24T04:01:09.305Z,-2.32
2022-11-24T04:03:36.968Z,-2.32
2022-11-24T04:06:04.659Z,-2.32
2022-11-24T04:08:32.361Z,-2.40
2022-11-24T04:11:00.212Z,-2.39
2022-11-24T04:13:28.501Z,-2.32
2022-11-24T04:15:56.190Z,-2.28
2022-11-24T04:18:24.047Z,-2.27
2022-11-24T04:20:52.410Z,-2.26
2022-11-24T04:23:20.145Z,-2.22
2022-11-24T04:25:47.876Z,-2.22
2022-11-24T04:28:15.553Z,-2.20
2022-11-24T04:30:45.238Z,-2.14
2022-11-24T04:33:13.583Z,-2.09
2022-11-24T04:35:41.372Z,-2.07
2022-11-24T04:38:09.169Z,-2.05
2022-11-24T04:40:37.523Z,-2.06
2022-11-24T04:43:05.348Z,-2.08
2022-11-24T04:45:33.826Z,-2.04
2022-11-24T04:48:02.415Z,-2.04
2022-11-24T04:50:30.125Z,-1.97
2022-11-24T04:52:57.927Z,-1.99
2022-11-24T04:55:25.551Z,-2.00
2022-11-24T04:57:53.213Z,-2.05
2022-11-24T05:00:21.766Z,-2.08
2022-11-24T05:02:49.412Z,-2.16
2022-11-24T05:05:17.120Z,-2.24
2022-11-24T05:07:44.867Z,-2.23
2022-11-24T05:10:31.361Z,-2.20
2022-11-24T05:12:59.873Z,-2.17
2022-11-24T05:15:27.846Z,-2.19
2022-11-24T05:17:55.666Z,-2.23
2022-11-24T05:20:23.567Z,-2.25
2022-11-24T05:22:51.617Z,-2.22
2022-11-24T05:25:19.330Z,-2.20
2022-11-24T05:27:47.000Z,-2.15
2022-11-24T05:30:14.829Z,-2.12
2022-11-24T05:32:42.868Z,-2.13
2022-11-24T05:35:10.505Z,-2.11
2022-11-24T05:37:38.503Z,-2.08
2022-11-24T05:40:07.099Z,-2.10
2022-11-24T05:42:46.173Z,-2.06
2022-11-24T05:45:17.917Z,-2.07
2022-11-24T05:47:45.954Z,-2.07
2022-11-24T05:50:16.363Z,-2.07
2022-11-24T05:52:44.017Z,-2.05
2022-11-24T05:55:12.801Z,-2.03
2022-11-24T05:57:40.476Z,-2.00
2022-11-24T06:00:10.094Z,-1.98
2022-11-24T06:02:41.578Z,-1.97
2022-11-24T06:05:09.503Z,-1.96
2022-11-24T06:07:37.247Z,-1.94
2022-11-24T06:10:05.751Z,-1.91
2022-11-24T06:12:33.420Z,-1.92
2022-11-24T06:15:01.070Z,-1.91
2022-11-24T06:17:29.444Z,-1.90
2022-11-24T06:19:57.132Z,-1.92
2022-11-24T06:22:24.986Z,-1.86
2022-11-24T06:24:53.221Z,-1.79
2022-11-24T06:27:20.905Z,-1.77
2022-11-24T06:29:48.651Z,-1.72
2022-11-24T06:32:16.354Z,-1.71
2022-11-24T06:34:44.643Z,-1.65
2022-11-24T06:37:12.853Z,-1.61
2022-11-24T06:39:40.688Z,-1.58
2022-11-24T06:42:08.962Z,-1.61
2022-11-24T06:44:36.916Z,-1.62
2022-11-24T06:47:05.662Z,-1.58
2022-11-24T06:49:33.330Z,-1.60
2022-11-24T06:52:01.101Z,-1.58
2022-11-24T06:54:28.824Z,-1.55
2022-11-24T06:56:58.289Z,-1.52
2022-11-24T06:59:26.822Z,-1.52
2022-11-24T07:01:54.485Z,-1.57
2022-11-24T07:04:22.153Z,-1.55
2022-11-24T07:06:49.838Z,-1.50
2022-11-24T07:09:17.522Z,-1.48
2022-11-24T07:11:45.188Z,-1.42
2022-11-24T07:14:12.986Z,-1.35
2022-11-24T07:16:40.930Z,-1.32
2022-11-24T07:19:10.648Z,-1.29
2022-11-24T07:21:38.334Z,-1.29
2022-11-24T07:24:06.695Z,-1.30
2022-11-24T07:26:37.606Z,-1.27
2022-11-24T07:29:05.732Z,-1.24
2022-11-24T07:31:33.567Z,-1.19
2022-11-24T07:34:01.367Z,-1.17
2022-11-24T07:36:29.237Z,-1.16
2022-11-24T07:38:56.934Z,-1.15
2022-11-24T07:41:24.710Z,-1.11
2022-11-24T07:43:53.273Z,-1.10
2022-11-24T07:46:21.131Z,-1.08
2022-11-24T07:48:48.907Z,-1.09
2022-11-24T07:51:16.631Z,-1.07
2022-11-24T07:53:45.547Z,-1.06
2022-11-24T07:56:13.421Z,-1.05
2022-11-24T07:58:41.175Z,-1.01
2022-11-24T08:01:18.838Z,-1.00
2022-11-24T08:03:47.399Z,-0.97
2022-11-24T08:06:26.181Z,-0.95
2022-11-24T08:08:57.404Z,-0.96
2022-11-24T08:11:25.676Z,-0.93
2022-11-24T08:13:53.455Z,-0.92
2022-11-24T08:16:21.219Z,-0.88
2022-11-24T08:18:51.176Z,-0.80
2022-11-24T08:21:19.622Z,-0.73
2022-11-24T08:23:47.287Z,-0.71
2022-11-24T08:26:19.048Z,-0.67
2022-11-24T08:28:48.129Z,-0.61
2022-11-24T08:31:21.334Z,-0.59
2022-11-24T08:33:49.195Z,-0.62
2022-11-24T08:36:19.235Z,-0.66
2022-11-24T08:38:49.103Z,-0.66
2022-11-24T08:41:17.836Z,-0.66
2022-11-24T08:43:45.519Z,-0.66
2022-11-24T08:46:17.312Z,-0.60
2022-11-24T08:48:49.126Z,-0.59
2022-11-24T08:51:19.596Z,-0.60
2022-11-24T08:53:47.522Z,-0.59
2022-11-24T08:56:15.559Z,-0.55
2022-11-24T08:58:43.380Z,-0.52
2022-11-24T09:01:14.708Z,-0.51
2022-11-24T09:03:50.360Z,-0.53
2022-11-24T09:06:25.153Z,-0.51
2022-11-24T09:08:56.246Z,-0.48
2022-11-24T09:11:24.648Z,-0.47
2022-11-24T09:13:52.817Z,-0.40
2022-11-24T09:16:26.930Z,-0.36
2022-11-24T09:19:00.268Z,-0.33
2022-11-24T09:21:29.392Z,-0.34
2022-11-24T09:23:57.438Z,-0.30
2022-11-24T09:26:31.091Z,-0.35
2022-11-24T09:29:00.740Z,-0.37
2022-11-24T09:31:34.661Z,-0.35
2022-11-24T09:34:04.980Z,-0.33
2022-11-24T09:36:32.750Z,-0.28
2022-11-24T09:39:00.575Z,-0.23
2022-11-24T09:42:00.554Z,-0.25
2022-11-24T09:44:40.185Z,-0.21
2022-11-24T09:47:23.016Z,-0.15
2022-11-24T09:50:02.390Z,-0.11
2022-11-24T09:52:41.301Z,-0.09
2022-11-24T09:55:58.552Z,-0.02
2022-11-24T09:58:45.094Z,0.07
2022-11-24T10:01:26.606Z,0.14
2022-11-24T10:03:55.204Z,0.21
2022-11-24T10:06:34.893Z,0.27
2022-11-24T10:09:35.177Z,0.25
2022-11-24T10:12:24.756Z,0.24
2022-11-24T10:15:33.629Z,0.27
2022-11-24T10:18:16.697Z,0.31
2022-11-24T10:20:55.068Z,0.39
2022-11-24T10:23:56.885Z,0.40
2022-11-24T10:26:39.593Z,0.46
2022-11-24T10:29:13.969Z,0.51
2022-11-24T10:31:43.971Z,0.53
2022-11-24T10:34:24.851Z,0.49
2022-11-24T10:37:16.785Z,0.49
2022-11-24T10:40:05.851Z,0.56
2022-11-24T10:42:37.286Z,0.57
2022-11-24T10:45:14.503Z,0.53
2022-11-24T10:47:43.717Z,0.55
2022-11-24T10:50:24.671Z,0.64
2022-11-24T10:53:04.269Z,0.70
2022-11-24T10:55:57.181Z,0.72
2022-11-24T10:58:37.635Z,0.76
2022-11-24T11:01:31.955Z,0.76
2022-11-24T11:04:00.250Z,0.77
2022-11-24T11:06:32.367Z,0.80
2022-11-24T11:09:08.899Z,0.86
2022-11-24T11:11:39.432Z,0.88
2022-11-24T11:14:10.643Z,0.92
2022-11-24T11:16:42.591Z,0.99
2022-11-24T11:20:01.767Z,1.12
2022-11-24T11:22:31.406Z,1.19
2022-11-24T11:25:24.610Z,1.19
2022-11-24T11:28:30.919Z,1.20
2022-11-24T11:31:22.810Z,1.24
2022-11-24T11:34:06.369Z,1.26
2022-11-24T11:36:42.255Z,1.25
2022-11-24T11:39:32.203Z,1.31
2022-11-24T11:43:00.086Z,1.30
2022-11-24T11:45:35.009Z,1.23
2022-11-24T11:48:03.166Z,1.24
2022-11-24T11:53:48.565Z,1.30
2022-11-24T11:56:35.045Z,1.29
2022-11-24T11:59:14.561Z,1.33
2022-11-24T12:01:42.383Z,1.39
2022-11-24T12:04:15.759Z,1.39
2022-11-24T12:07:02.009Z,1.35
2022-11-24T12:09:53.962Z,1.35
2022-11-24T12:12:45.920Z,1.32
2022-11-24T12:15:37.248Z,1.30
2022-11-24T12:18:48.662Z,1.32
2022-11-24T12:21:08.707Z,1.33
2022-11-24T12:23:43.942Z,1.31
2022-11-24T12:26:32.744Z,1.34
2022-11-24T12:29:43.002Z,1.36
2022-11-24T12:32:41.516Z,1.36
2022-11-24T12:35:28.228Z,1.32
2022-11-24T12:38:07.655Z,1.35
2022-11-24T12:44:03.144Z,1.37
2022-11-24T12:46:36.631Z,1.38
2022-11-24T12:49:23.192Z,1.37
2022-11-24T12:52:01.526Z,1.40
2022-11-24T12:54:38.253Z,1.45
2022-11-24T12:57:10.890Z,1.44
2022-11-24T12:59:57.989Z,1.39
2022-11-24T13:02:25.731Z,1.42
2022-11-24T13:05:03.507Z,1.45
2022-11-24T13:07:46.987Z,1.41
2022-11-24T13:10:46.471Z,1.38
2022-11-24T13:13:23.611Z,1.32
2022-11-24T13:18:53.674Z,1.38
2022-11-24T13:21:30.610Z,1.35
2022-11-24T13:24:00.189Z,1.32
2022-11-24T13:26:41.498Z,1.33
2022-11-24T13:29:30.637Z,1.31
2022-11-24T13:32:01.281Z,1.28
2022-11-24T13:34:40.952Z,1.30
2022-11-24T13:37:35.174Z,1.31
2022-11-24T13:40:12.559Z,1.33
2022-11-24T13:42:56.438Z,1.35
2022-11-24T13:45:39.520Z,1.34
2022-11-24T13:48:19.925Z,1.29
2022-11-24T13:50:51.237Z,1.16
2022-11-24T13:53:36.133Z,1.17
2022-11-24T13:56:08.928Z,1.17
2022-11-24T13:58:39.533Z,1.14
2022-11-24T14:01:13.260Z,1.10
2022-11-24T14:04:29.136Z,1.08
2022-11-24T14:07:08.338Z,1.05
2022-11-24T14:09:45.949Z,1.09
2022-11-24T14:12:15.886Z,1.09
2022-11-24T14:14:45.425Z,1.05
2022-11-24T14:17:13.234Z,1.03
2022-11-24T14:19:46.260Z,1.00
2022-11-24T14:22:23.269Z,1.00
2022-11-24T14:24:58.819Z,1.01
2022-11-24T14:27:34.486Z,1.07
2022-11-24T14:30:10.717Z,1.07
2022-11-24T14:32:38.425Z,1.07
2022-11-24T14:35:26.382Z,1.07
2022-11-24T14:37:54.497Z,1.04
2022-11-24T14:40:38.402Z,1.02
2022-11-24T14:43:15.623Z,1.06
2022-11-24T14:45:56.155Z,1.08
2022-11-24T14:48:29.782Z,1.09
2022-11-24T14:51:18.463Z,1.09
2022-11-24T14:53:49.165Z,1.12
2022-11-24T14:56:19.505Z,1.16
2022-11-24T14:58:47.177Z,1.15
2022-11-24T15:01:27.273Z,1.16
2022-11-24T15:04:32.834Z,1.13
2022-11-24T15:07:26.351Z,1.04
2022-11-24T15:09:58.364Z,1.04
2022-11-24T15:12:35.036Z,1.03
2022-11-24T15:15:16.143Z,1.01
2022-11-24T15:17:51.439Z,1.00
2022-11-24T15:20:44.631Z,0.99
2022-11-24T15:23:21.633Z,0.93
2022-11-24T15:25:56.408Z,0.91
2022-11-24T15:28:26.203Z,0.84
2022-11-24T15:30:57.213Z,0.82
2022-11-24T15:33:24.795Z,0.77
2022-11-24T15:35:52.553Z,0.74
2022-11-24T15:38:21.073Z,0.74
2022-11-24T15:40:52.106Z,0.71
2022-11-24T15:43:19.624Z,0.71
2022-11-24T15:45:47.196Z,0.71
2022-11-24T15:48:17.984Z,0.70
2022-11-24T15:50:47.550Z,0.69
2022-11-24T15:53:36.665Z,0.62
2022-11-24T15:56:07.811Z,0.58
2022-11-24T15:58:35.560Z,0.60
2022-11-24T16:01:03.281Z,0.60
2022-11-24T16:03:48.253Z,0.62
2022-11-24T16:06:25.339Z,0.65
2022-11-24T16:08:54.423Z,0.70
2022-11-24T16:11:23.088Z,0.70
2022-11-24T16:13:54.033Z,0.68
2022-11-24T16:16:25.485Z,0.63
2022-11-24T16:18:53.339Z,0.62
2022-11-24T16:21:21.052Z,0.61
2022-11-24T16:23:48.958Z,0.61
2022-11-24T16:26:16.635Z,0.57
2022-11-24T16:28:45.995Z,0.53
2022-11-24T16:31:16.215Z,0.48
2022-11-24T16:33:47.378Z,0.40
2022-11-24T16:36:15.132Z,0.41
2022-11-24T16:38:42.843Z,0.39
2022-11-24T16:41:10.760Z,0.38
2022-11-24T16:43:38.894Z,0.37
2022-11-24T16:46:17.250Z,0.35
2022-11-24T16:48:50.322Z,0.39
2022-11-24T16:51:22.356Z,0.38
2022-11-24T16:53:58.695Z,0.38
2022-11-24T16:56:27.905Z,0.34
2022-11-24T16:58:55.698Z,0.36
2022-11-24T17:01:23.966Z,0.38
2022-11-24T17:03:52.003Z,0.34
2022-11-24T17:06:19.993Z,0.32
2022-11-24T17:08:48.444Z,0.30
2022-11-24T17:11:21.794Z,0.33
2022-11-24T17:13:49.972Z,0.36
2022-11-24T17:16:20.348Z,0.34
2022-11-24T17:18:48.518Z,0.28
2022-11-24T17:21:21.272Z,0.26
2022-11-24T17:23:54.458Z,0.29
2022-11-24T17:26:22.859Z,0.31
2022-11-24T17:28:50.593Z,0.32
2022-11-24T17:31:27.443Z,0.30
2022-11-24T17:33:57.738Z,0.32
2022-11-24T17:36:25.826Z,0.35
2022-11-24T17:38:53.876Z,0.41
2022-11-24T17:41:22.420Z,0.43
2022-11-24T17:43:51.722Z,0.41
2022-11-24T17:46:19.897Z,0.38
2022-11-24T17:48:47.923Z,0.29
2022-11-24T17:51:20.595Z,0.26
2022-11-24T17:53:50.035Z,0.25
2022-11-24T17:56:20.366Z,0.29
2022-11-24T17:58:48.092Z,0.28
2022-11-24T18:01:15.752Z,0.23
2022-11-24T18:03:43.584Z,0.22
2022-11-24T18:06:13.590Z,0.23
2022-11-24T18:08:44.210Z,0.28
2022-11-24T18:11:17.455Z,0.29
2022-11-24T18:14:01.675Z,0.33
2022-11-24T18:16:31.926Z,0.27
2022-11-24T18:19:10.422Z,0.24
2022-11-24T18:21:43.885Z,0.24
2022-11-24T18:24:12.658Z,0.22
2022-11-24T18:26:41.779Z,0.24
2022-11-24T18:29:10.964Z,0.26
2022-11-24T18:31:39.162Z,0.24
2022-11-24T18:34:07.689Z,0.25
2022-11-24T18:36:35.839Z,0.28
2022-11-24T18:39:05.460Z,0.27
2022-11-24T18:41:33.664Z,0.28
2022-11-24T18:44:04.002Z,0.27
2022-11-24T18:46:33.157Z,0.28
2022-11-24T18:49:01.172Z,0.27
2022-11-24T18:51:28.907Z,0.29
2022-11-24T18:53:59.678Z,0.25
2022-11-24T18:56:27.657Z,0.26
2022-11-24T18:58:56.926Z,0.27
2022-11-24T19:01:27.189Z,0.24
2022-11-24T19:03:58.041Z,0.24
2022-11-24T19:06:34.085Z,0.23
2022-11-24T19:09:07.724Z,0.20
2022-11-24T19:11:37.535Z,0.11
2022-11-24T19:14:07.246Z,0.11
2022-11-24T19:16:36.073Z,0.08
2022-11-24T19:19:04.581Z,0.08
2022-11-24T19:21:39.038Z,0.06
2022-11-24T19:24:10.729Z,0.01
2022-11-24T19:26:40.834Z,0.03
2022-11-24T19:29:10.097Z,0.07
2022-11-24T19:31:46.292Z,0.11
2022-11-24T19:34:18.223Z,0.13
2022-11-24T19:36:46.206Z,0.10
2022-11-24T19:39:15.635Z,0.11
2022-11-24T19:41:44.488Z,0.14
2022-11-24T19:44:12.727Z,0.20
2022-11-24T19:46:40.895Z,0.22
2022-11-24T19:49:09.110Z,0.24
2022-11-24T19:51:39.244Z,0.21
2022-11-24T19:54:10.472Z,0.19
2022-11-24T19:56:38.200Z,0.28
2022-11-24T19:59:06.627Z,0.33
2022-11-24T20:01:40.052Z,0.33
2022-11-24T20:04:13.772Z,0.36
2022-11-24T20:06:43.596Z,0.33
2022-11-24T20:09:16.899Z,0.32
2022-11-24T20:11:45.173Z,0.29
2022-11-24T20:14:14.349Z,0.31
2022-11-24T20:16:42.118Z,0.24
2022-11-24T20:19:14.326Z,0.26
2022-11-24T20:21:46.399Z,0.29
2022-11-24T20:24:17.725Z,0.24
2022-11-24T20:26:51.289Z,0.23
2022-11-24T20:29:19.409Z,0.29
2022-11-24T20:31:50.195Z,0.25
2022-11-24T20:34:18.334Z,0.29
2022-11-24T20:36:47.188Z,0.34
2022-11-24T20:39:21.189Z,0.38
2022-11-24T20:41:49.607Z,0.44
2022-11-24T20:44:19.775Z,0.47
2022-11-24T20:46:48.019Z,0.48
2022-11-24T20:49:18.233Z,0.39
2022-11-24T20:51:49.402Z,0.35
2022-11-24T20:54:18.333Z,0.36
2022-11-24T20:56:47.120Z,0.38
2022-11-24T20:59:17.884Z,0.32
2022-11-24T21:01:46.761Z,0.26
2022-11-24T21:04:20.624Z,0.19
2022-11-24T21:06:48.677Z,0.13
2022-11-24T21:09:16.819Z,0.09
2022-11-24T21:11:44.524Z,0.05
2022-11-24T21:14:12.433Z,0.03
2022-11-24T21:16:42.163Z,-0.04
2022-11-24T21:19:15.267Z,-0.11
2022-11-24T21:21:43.348Z,-0.19
2022-11-24T21:24:16.741Z,-0.24
2022-11-24T21:26:47.927Z,-0.27
2022-11-24T21:29:22.426Z,-0.31
2022-11-24T21:31:50.225Z,-0.29
2022-11-24T21:34:19.380Z,-0.21
2022-11-24T21:36:47.823Z,-0.17
2022-11-24T21:39:16.384Z,-0.13
2022-11-24T21:41:44.665Z,-0.14
2022-11-24T21:44:13.621Z,-0.15
2022-11-24T21:46:46.144Z,-0.17
2022-11-24T21:49:17.112Z,-0.13
2022-11-24T21:51:44.752Z,-0.06
2022-11-24T21:54:12.483Z,-0.05
2022-11-24T21:56:40.121Z,-0.03
2022-11-24T21:59:08.550Z,-0.03
2022-11-24T22:01:37.502Z,-0.03
2022-11-24T22:04:05.417Z,0.00
2022-11-24T22:06:33.479Z,-0.02
2022-11-24T22:09:01.181Z,-0.00
2022-11-24T22:11:28.868Z,0.03
2022-11-24T22:13:56.503Z,0.02
2022-11-24T22:16:24.919Z,-0.00
2022-11-24T22:18:52.850Z,-0.00
2022-11-24T22:21:24.038Z,0.01
2022-11-24T22:23:52.916Z,0.01
2022-11-24T22:26:22.665Z,-0.02
2022-11-24T22:28:51.075Z,-0.04
2022-11-24T22:31:21.791Z,-0.08
2022-11-24T22:33:50.434Z,-0.09
2022-11-24T22:36:22.701Z,-0.10
2022-11-24T22:38:58.979Z,-0.14
2022-11-24T22:41:26.630Z,-0.17
2022-11-24T22:43:54.590Z,-0.17
2022-11-24T22:46:24.986Z,-0.17
2022-11-24T22:48:54.137Z,-0.16
2022-11-24T22:51:24.971Z,-0.16
2022-11-24T22:53:55.237Z,-0.18
2022-11-24T22:56:23.928Z,-0.24
2022-11-24T22:58:52.364Z,-0.27
2022-11-24T23:01:22.969Z,-0.25
2022-11-24T23:03:54.740Z,-0.24
2022-11-24T23:06:25.180Z,-0.28
2022-11-24T23:08:53.883Z,-0.27
2022-11-24T23:11:34.892Z,-0.27
2022-11-24T23:14:07.617Z,-0.29
2022-11-24T23:16:36.121Z,-0.34
2022-11-24T23:19:05.002Z,-0.42
2022-11-24T23:21:35.537Z,-0.45
2022-11-24T23:24:05.719Z,-0.43
2022-11-24T23:26:37.582Z,-0.47
2022-11-24T23:29:06.564Z,-0.45
2022-11-24T23:31:35.271Z,-0.39
2022-11-24T23:34:05.004Z,-0.37
2022-11-24T23:36:34.044Z,-0.35
2022-11-24T23:39:12.501Z,-0.37
2022-11-24T23:41:41.575Z,-0.44
2022-11-24T23:44:10.142Z,-0.40
2022-11-24T23:46:38.540Z,-0.43
2022-11-24T23:49:06.985Z,-0.47
2022-11-24T23:51:35.878Z,-0.54
2022-11-24T23:54:09.051Z,-0.59
2022-11-24T23:56:37.432Z,-0.68
2022-11-24T23:59:06.068Z,-0.70
